Time;durP1;ratioP1;P1;durP2;ratioP2;P2;SDS_P1;SDS_P2;PMS_P1;PMS_P2;Temp;Humidity;BMP_temperature;BMP_pressure;BME280_temperature;BME280_humidity;BME280_pressure;Samples;Min_cycle;Max_cycle;Signal;HPM_P1;HPM_P2
2023/10/12 00:02:50;;;;;;;12.13;5.30;;;;;;;18.40;66.26;100295.34;5075977;28;20201;-74
2023/10/12 00:05:20;;;;;;;9.57;5.00;;;;;;;18.37;66.15;100279.53;5075899;28;20226;-75
2023/10/12 00:07:49;;;;;;;12.20;5.20;;;;;;;18.39;66.01;100280.97;5075823;28;20702;-75
2023/10/12 00:10:21;;;;;;;13.30;5.27;;;;;;;18.40;65.81;100260.97;5076091;28;20206;-75
2023/10/12 00:12:54;;;;;;;12.60;5.20;;;;;;;18.42;65.63;100261.59;5075997;28;20220;-75
2023/10/12 00:15:28;;;;;;;13.13;5.97;;;;;;;18.42;65.75;100264.28;5075880;28;20231;-75
2023/10/12 00:18:04;;;;;;;10.27;5.67;;;;;;;18.43;65.20;100249.66;5075676;28;20579;-75
2023/10/12 00:20:35;;;;;;;8.30;5.10;;;;;;;18.39;65.78;100253.88;5075897;28;20211;-75
2023/10/12 00:23:10;;;;;;;11.37;5.30;;;;;;;18.36;65.58;100259.75;5075394;28;20258;-75
2023/10/12 00:25:45;;;;;;;8.50;5.03;;;;;;;18.37;65.51;100253.28;5075433;28;20221;-75
2023/10/12 00:28:17;;;;;;;10.57;5.47;;;;;;;18.39;65.05;100253.88;5075539;28;20666;-75
2023/10/12 00:30:47;;;;;;;9.33;5.20;;;;;;;18.39;65.65;100259.28;5075729;28;20225;-75
2023/10/12 00:33:18;;;;;;;9.53;5.40;;;;;;;18.37;65.71;100256.00;5075680;28;20267;-75
2023/10/12 00:35:50;;;;;;;12.53;5.87;;;;;;;18.36;66.13;100265.16;5075265;28;20709;-75
2023/10/12 00:38:23;;;;;;;12.97;5.80;;;;;;;18.35;66.27;100255.41;5075607;28;20210;-75
2023/10/12 00:40:55;;;;;;;13.73;5.70;;;;;;;18.34;66.24;100256.44;5075583;28;20189;-75
2023/10/12 00:43:28;;;;;;;9.83;5.10;;;;;;;18.33;66.42;100262.91;5075535;28;20197;-75
2023/10/12 00:45:56;;;;;;;9.03;5.70;;;;;;;18.33;66.73;100272.91;5075323;28;20316;-75
2023/10/12 00:48:30;;;;;;;9.40;5.30;;;;;;;18.31;66.99;100273.16;5075100;28;20237;-75
2023/10/12 00:50:59;;;;;;;10.60;5.93;;;;;;;18.30;67.02;100279.59;5075249;28;20201;-75
2023/10/12 00:53:32;;;;;;;9.87;5.87;;;;;;;18.28;67.15;100278.19;5075231;28;20202;-75
2023/10/12 00:56:02;;;;;;;8.50;5.70;;;;;;;18.25;68.28;100293.81;5075229;28;20237;-75
2023/10/12 00:58:31;;;;;;;16.73;6.73;;;;;;;18.21;69.05;100291.78;5074815;28;20212;-75
2023/10/12 01:01:05;;;;;;;11.17;6.57;;;;;;;18.18;69.99;100289.50;5075102;28;20272;-75
2023/10/12 01:03:36;;;;;;;9.23;6.37;;;;;;;18.15;70.14;100281.84;5074779;28;20620;-75
2023/10/12 01:06:27;;;;;;;9.43;6.17;;;;;;;18.11;70.92;100275.19;5074995;28;20201;-75
2023/10/12 01:08:59;;;;;;;11.00;6.73;;;;;;;18.05;71.56;100271.47;5074944;28;20220;-75
2023/10/12 01:11:33;;;;;;;10.40;5.90;;;;;;;18.04;71.63;100275.25;5074817;28;20273;-75
2023/10/12 01:14:09;;;;;;;12.10;6.30;;;;;;;18.02;72.58;100266.50;5074841;28;20229;-75
2023/10/12 01:16:54;;;;;;;13.80;6.53;;;;;;;18.01;72.21;100269.44;5074810;28;20189;-75
2023/10/12 01:19:30;;;;;;;11.87;6.43;;;;;;;17.96;72.37;100285.50;5074444;28;20605;-75
2023/10/12 01:22:05;;;;;;;10.63;6.90;;;;;;;17.95;73.08;100287.38;5074449;28;20262;-75
2023/10/12 01:24:33;;;;;;;10.83;6.57;;;;;;;17.88;74.09;100296.59;5074531;28;20230;-75
2023/10/12 01:27:02;;;;;;;12.77;6.73;;;;;;;17.89;74.52;100292.84;5074496;28;20208;-75
2023/10/12 01:29:31;;;;;;;11.57;6.23;;;;;;;17.87;74.55;100301.19;5074496;28;20205;-75
2023/10/12 01:32:21;;;;;;;12.83;6.73;;;;;;;17.83;75.54;100291.84;5074391;28;20253;-75
2023/10/12 01:34:52;;;;;;;10.33;6.80;;;;;;;17.77;76.94;100305.44;5074499;28;20229;-75
2023/10/12 01:37:23;;;;;;;15.00;7.80;;;;;;;17.68;77.58;100302.13;5074229;28;20625;-75
2023/10/12 01:39:56;;;;;;;15.20;6.70;;;;;;;17.57;78.60;100303.66;5074395;28;20221;-75
2023/10/12 01:42:42;;;;;;;13.13;7.70;;;;;;;17.58;78.47;100308.03;5074382;28;20272;-75
2023/10/12 01:45:18;;;;;;;14.07;8.10;;;;;;;17.55;78.80;100311.13;5074302;28;20283;-75
2023/10/12 01:47:51;;;;;;;12.57;7.83;;;;;;;17.51;79.22;100309.91;5074126;28;20555;-75
2023/10/12 01:50:20;;;;;;;14.00;8.07;;;;;;;17.52;80.24;100308.84;5074347;28;20190;-75
2023/10/12 01:52:52;;;;;;;13.60;8.17;;;;;;;17.42;80.65;100311.19;5073734;28;20316;-75
2023/10/12 01:55:27;;;;;;;11.13;8.00;;;;;;;17.38;82.20;100314.53;5074182;28;20225;-75
2023/10/12 01:57:56;;;;;;;12.30;9.03;;;;;;;17.29;82.91;100316.66;5073544;28;20292;-75
2023/10/12 02:00:28;;;;;;;13.30;9.13;;;;;;;17.27;83.72;100316.03;5073079;28;20739;-75
2023/10/12 02:03:12;;;;;;;15.03;10.37;;;;;;;17.26;83.43;100318.97;5073776;28;20232;-75
2023/10/12 02:05:56;;;;;;;15.40;9.63;;;;;;;17.06;84.96;100325.25;5073894;28;20274;-75
2023/10/12 02:08:32;;;;;;;16.30;10.10;;;;;;;16.99;86.10;100321.75;5073877;28;20272;-75
2023/10/12 02:11:11;;;;;;;15.83;10.20;;;;;;;17.00;86.52;100338.78;5073826;28;20200;-75
2023/10/12 02:13:41;;;;;;;14.27;10.37;;;;;;;16.85;87.05;100332.81;5073673;28;20301;-75
2023/10/12 02:16:12;;;;;;;16.23;9.27;;;;;;;16.77;85.45;100338.44;5073769;28;20198;-75
2023/10/12 02:18:43;;;;;;;15.83;8.70;;;;;;;16.69;83.97;100345.72;5073739;28;20189;-75
2023/10/12 02:21:12;;;;;;;14.27;8.83;;;;;;;16.65;84.97;100344.47;5073412;28;20217;-75
2023/10/12 02:26:33;;;;;;;14.70;8.20;;;;;;;16.71;85.28;100327.41;5073625;28;20196;-75
2023/10/12 02:29:11;;;;;;;16.10;8.53;;;;;;;16.63;83.54;100346.56;5073623;28;20196;-75
2023/10/12 02:31:45;;;;;;;13.50;8.47;;;;;;;16.60;84.62;100346.97;5073264;28;20630;-75
2023/10/12 02:34:16;;;;;;;11.70;7.73;;;;;;;16.59;84.33;100350.72;5073404;28;20237;-75
2023/10/12 02:37:00;;;;;;;14.80;8.47;;;;;;;16.56;85.53;100334.91;5073544;28;20556;-75
2023/10/12 02:39:37;;;;;;;15.00;8.47;;;;;;;16.42;86.47;100338.63;5073554;28;20242;-75
2023/10/12 02:42:16;;;;;;;12.87;8.83;;;;;;;16.45;86.80;100349.03;5073485;28;20243;-75
2023/10/12 02:45:10;;;;;;;14.60;9.43;;;;;;;16.45;87.67;100356.28;5073438;28;20587;-75
2023/10/12 02:47:42;;;;;;;17.77;9.07;;;;;;;16.51;87.43;100348.19;5073461;28;20193;-75
2023/10/12 02:50:27;;;;;;;14.63;9.23;;;;;;;16.53;87.41;100362.34;5073359;28;20284;-75
2023/10/12 02:52:56;;;;;;;11.77;8.33;;;;;;;16.53;87.30;100356.94;5073009;28;20736;-75
2023/10/12 02:55:34;;;;;;;10.23;8.37;;;;;;;16.55;87.58;100365.69;5073008;28;20607;-75
2023/10/12 02:58:17;;;;;;;15.07;9.97;;;;;;;16.43;89.01;100363.78;5073371;28;20193;-75
2023/10/12 03:00:47;;;;;;;12.83;8.73;;;;;;;16.46;89.02;100372.31;5073251;28;20270;-75
2023/10/12 03:03:24;;;;;;;14.90;9.47;;;;;;;16.46;89.04;100369.59;5073222;28;20186;-75
2023/10/12 03:05:58;;;;;;;15.60;9.67;;;;;;;16.35;90.12;100381.03;5073143;28;20225;-75
2023/10/12 03:08:33;;;;;;;16.13;9.50;;;;;;;16.22;90.77;100391.81;5072852;28;20654;-75
2023/10/12 03:11:15;;;;;;;14.90;10.57;;;;;;;16.18;91.41;100395.97;5072841;28;20651;-75
2023/10/12 03:13:54;;;;;;;14.13;10.77;;;;;;;16.16;91.25;100392.66;5076102;28;20266;-75
2023/10/12 03:16:24;;;;;;;13.40;9.97;;;;;;;16.10;91.70;100401.53;5076756;28;20670;-75
2023/10/12 03:18:57;;;;;;;15.23;10.43;;;;;;;16.16;92.23;100408.84;5076724;28;20727;-75
2023/10/12 03:21:29;;;;;;;16.47;10.60;;;;;;;16.09;92.59;100397.19;5076758;28;20226;-75
2023/10/12 03:23:58;;;;;;;16.53;11.53;;;;;;;16.04;92.89;100411.28;5076881;28;20279;-75
2023/10/12 03:26:27;;;;;;;18.30;11.50;;;;;;;16.05;93.36;100404.03;5076870;28;20212;-75
2023/10/12 03:29:08;;;;;;;14.70;10.83;;;;;;;15.98;93.67;100411.28;5076498;28;20637;-75
2023/10/12 03:31:52;;;;;;;14.93;10.73;;;;;;;15.94;94.33;100423.50;5076770;28;20239;-75
2023/10/12 03:34:35;;;;;;;13.87;10.50;;;;;;;15.98;92.89;100422.91;5076599;28;20229;-75
2023/10/12 03:37:13;;;;;;;19.00;12.17;;;;;;;15.89;93.90;100423.31;5076707;28;20189;-76
2023/10/12 03:39:59;;;;;;;15.93;12.37;;;;;;;15.68;94.50;100427.75;5076306;28;20643;-76
2023/10/12 03:42:42;;;;;;;15.00;11.30;;;;;;;15.64;94.92;100426.53;5076588;28;20190;-76
2023/10/12 03:45:24;;;;;;;16.93;12.00;;;;;;;15.75;95.52;100433.22;5077036;28;20619;-76
2023/10/12 03:48:15;;;;;;;17.67;12.17;;;;;;;15.73;94.26;100424.47;5076479;28;20194;-76
2023/10/12 03:51:11;;;;;;;16.67;12.53;;;;;;;15.73;94.95;100433.41;5076132;28;20190;-76
2023/10/12 03:53:45;;;;;;;15.57;11.87;;;;;;;15.72;95.00;100437.13;5075996;28;20260;-76
2023/10/12 03:56:15;;;;;;;15.37;11.27;;;;;;;15.61;95.04;100437.72;5076151;28;20189;-76
2023/10/12 03:58:57;;;;;;;15.67;11.40;;;;;;;15.51;95.29;100442.66;5076039;28;20654;-75
2023/10/12 04:01:30;;;;;;;16.20;11.00;;;;;;;15.49;97.01;100452.78;5076268;28;20224;-75
2023/10/12 04:04:08;;;;;;;19.27;11.97;;;;;;;15.57;95.76;100451.81;5076125;28;20300;-75
2023/10/12 04:07:04;;;;;;;15.13;11.17;;;;;;;15.55;95.88;100443.91;5075844;28;20659;-75
2023/10/12 04:09:34;;;;;;;16.00;12.03;;;;;;;15.47;96.07;100454.84;5076267;28;20247;-75
2023/10/12 04:12:17;;;;;;;16.20;12.27;;;;;;;15.46;96.01;100450.47;5075835;28;20209;-75
2023/10/12 04:14:55;;;;;;;15.77;11.90;;;;;;;15.48;96.95;100443.03;5076000;28;20240;-75
2023/10/12 04:17:47;;;;;;;14.83;11.57;;;;;;;15.43;97.85;100445.47;5076001;28;20567;-75
2023/10/12 04:20:19;;;;;;;13.93;11.87;;;;;;;15.39;97.12;100452.28;5076122;28;20185;-75
2023/10/12 04:25:49;;;;;;;16.47;11.23;;;;;;;15.28;98.37;100452.84;5059813;28;20310;-75
2023/10/12 04:28:22;;;;;;;12.40;10.40;;;;;;;15.39;98.48;100459.53;5076249;28;20194;-75
2023/10/12 04:33:55;;;;;;;12.70;10.17;;;;;;;15.36;98.08;100463.47;5075873;28;20221;-75
2023/10/12 04:36:25;;;;;;;14.53;10.43;;;;;;;15.38;98.00;100463.28;5075581;28;20194;-75
2023/10/12 04:39:11;;;;;;;16.67;10.10;;;;;;;15.31;98.62;100463.22;5076204;28;20209;-75
2023/10/12 04:41:46;;;;;;;16.00;9.83;;;;;;;15.28;98.29;100442.06;5076035;28;20277;-75
2023/10/12 04:47:05;;;;;;;15.30;10.23;;;;;;;15.27;97.38;100429.63;5075152;28;20633;-75
2023/10/12 04:55:20;;;;;;;15.87;9.27;;;;;;;15.08;100.00;100389.84;5071848;28;20229;-75
2023/10/12 05:00:48;;;;;;;18.07;11.60;;;;;;;15.01;100.00;100402.47;5074943;28;20216;-75
2023/10/12 05:03:26;;;;;;;14.43;11.60;;;;;;;15.02;100.00;100396.03;5075138;28;20200;-75
2023/10/12 05:05:55;;;;;;;15.50;11.53;;;;;;;14.95;100.00;100384.38;5075016;28;20233;-75
2023/10/12 05:08:24;;;;;;;20.33;13.00;;;;;;;14.87;100.00;100396.16;5074680;28;20251;-75
2023/10/12 05:10:53;;;;;;;18.97;12.90;;;;;;;14.89;100.00;100414.81;5074944;28;20637;-75
2023/10/12 05:13:21;;;;;;;21.60;14.00;;;;;;;14.95;99.78;100414.88;5074524;28;20277;-75
2023/10/12 05:18:42;;;;;;;21.23;14.30;;;;;;;14.97;100.00;100438.91;5069601;28;20296;-71
2023/10/12 05:21:10;;;;;;;17.77;14.00;;;;;;;14.96;99.51;100437.28;5074259;28;20708;-71
2023/10/12 05:23:39;;;;;;;21.93;12.57;;;;;;;14.97;100.00;100444.31;5074614;28;20244;-72
2023/10/12 05:26:10;;;;;;;21.40;13.23;;;;;;;15.00;99.84;100455.53;5074349;28;20292;-72
2023/10/12 05:28:57;;;;;;;20.47;12.37;;;;;;;14.91;99.92;100451.34;5074377;28;20640;-72
2023/10/12 05:31:29;;;;;;;16.67;11.53;;;;;;;14.95;100.00;100463.41;5074593;28;20277;-72
2023/10/12 05:34:18;;;;;;;16.00;11.67;;;;;;;14.98;100.00;100456.78;5074095;28;20668;-72
2023/10/12 05:36:48;;;;;;;14.33;11.27;;;;;;;14.94;100.00;100460.88;5074365;28;20186;-72
2023/10/12 05:39:17;;;;;;;18.20;11.97;;;;;;;14.99;99.90;100461.97;5074340;28;20209;-72
2023/10/12 05:41:47;;;;;;;19.60;12.07;;;;;;;15.05;100.00;100466.59;5074343;28;20237;-72
2023/10/12 05:44:24;;;;;;;18.93;12.87;;;;;;;14.99;100.00;100474.63;5073910;28;20589;-72
2023/10/12 05:46:59;;;;;;;19.07;12.63;;;;;;;15.09;99.74;100475.13;5073983;28;20648;-72
2023/10/12 05:49:33;;;;;;;19.20;12.97;;;;;;;15.15;99.52;100491.34;5073893;28;20190;-72
2023/10/12 05:52:05;;;;;;;8.17;6.63;;;;;;;14.92;97.60;100496.13;5074290;28;20197;-72
2023/10/12 05:54:35;;;;;;;4.37;2.80;;;;;;;14.78;95.64;100488.97;5073687;28;20695;-72
2023/10/12 05:57:07;;;;;;;2.50;1.93;;;;;;;14.66;94.71;100496.72;5074088;28;20207;-72
2023/10/12 05:59:38;;;;;;;3.43;1.90;;;;;;;14.67;95.35;100509.16;5073728;28;20295;-72
2023/10/12 06:02:09;;;;;;;3.77;2.17;;;;;;;14.75;94.70;100486.66;5074032;28;20243;-72
2023/10/12 06:04:39;;;;;;;2.53;2.10;;;;;;;14.68;95.06;100494.69;5073556;28;20249;-72
2023/10/12 06:07:09;;;;;;;4.23;2.20;;;;;;;14.61;96.50;100503.72;5073953;28;20197;-72
2023/10/12 06:09:38;;;;;;;3.17;2.03;;;;;;;14.68;95.97;100516.22;5073829;28;20239;-72
2023/10/12 06:12:08;;;;;;;3.50;2.60;;;;;;;14.77;95.31;100534.94;5073803;28;20201;-72
2023/10/12 06:14:38;;;;;;;4.33;2.40;;;;;;;14.60;96.86;100546.00;5073638;28;20267;-72
2023/10/12 06:17:07;;;;;;;2.43;1.80;;;;;;;14.65;96.83;100553.50;5073717;28;20205;-72
2023/10/12 06:19:36;;;;;;;1.73;1.50;;;;;;;14.62;95.81;100561.97;5073478;28;20734;-72
2023/10/12 06:22:20;;;;;;;1.67;1.30;;;;;;;14.57;94.17;100562.53;5073435;28;20237;-72
2023/10/12 06:24:52;;;;;;;4.00;1.60;;;;;;;14.44;94.73;100575.03;5073315;28;20578;-72
2023/10/12 06:27:24;;;;;;;3.30;1.50;;;;;;;14.51;93.62;100576.78;5073346;28;20540;-71
2023/10/12 06:29:54;;;;;;;2.63;1.27;;;;;;;14.45;93.32;100571.31;5073657;28;20194;-71
2023/10/12 06:32:31;;;;;;;4.17;1.57;;;;;;;14.58;94.12;100584.94;5073558;28;20209;-71
2023/10/12 06:35:15;;;;;;;2.37;1.43;;;;;;;14.58;92.77;100576.84;5073459;28;20319;-72
2023/10/12 06:37:59;;;;;;;3.57;1.97;;;;;;;14.61;92.62;100580.00;5073532;28;20189;-72
2023/10/12 06:45:56;;;;;;;2.67;1.63;;;;;;;14.58;92.84;100595.69;5073446;28;20225;-72
2023/10/12 06:51:22;;;;;;;3.77;1.67;;;;;;;14.53;92.06;100592.72;5091681;27;20546;-68
2023/10/12 06:53:52;;;;;;;3.63;1.67;;;;;;;14.54;91.15;100591.72;5091097;28;20193;-76
2023/10/12 06:56:26;;;;;;;3.53;1.70;;;;;;;14.54;90.81;100610.56;5091011;28;20193;-76
2023/10/12 06:59:09;;;;;;;6.73;2.00;;;;;;;14.43;90.15;100611.88;5090968;28;20188;-76
2023/10/12 07:01:38;;;;;;;7.73;2.20;;;;;;;14.29;91.50;100601.94;5090810;28;20238;-76
2023/10/12 07:04:13;;;;;;;5.23;1.97;;;;;;;14.37;91.04;100609.97;5090776;28;20225;-76
2023/10/12 07:06:56;;;;;;;5.67;2.13;;;;;;;14.34;89.96;100617.56;5090527;28;20564;-76
2023/10/12 07:09:38;;;;;;;7.80;2.10;;;;;;;14.28;91.06;100627.19;5090598;28;20208;-75
2023/10/12 07:12:08;;;;;;;5.80;2.27;;;;;;;14.13;91.38;100635.28;5090402;28;20638;-75
2023/10/12 07:14:38;;;;;;;6.00;2.10;;;;;;;14.22;91.04;100644.94;5090576;28;20229;-75
2023/10/12 07:17:08;;;;;;;7.70;2.03;;;;;;;14.26;91.51;100650.78;5090580;28;20239;-75
2023/10/12 07:19:40;;;;;;;6.33;2.20;;;;;;;14.31;91.02;100653.78;5090558;28;20201;-75
2023/10/12 07:22:15;;;;;;;5.67;2.10;;;;;;;14.32;91.04;100655.41;5090592;28;20216;-75
2023/10/12 07:24:44;;;;;;;6.27;2.00;;;;;;;14.28;90.97;100659.50;5090432;28;20335;-75
2023/10/12 07:27:17;;;;;;;5.83;2.10;;;;;;;14.30;90.50;100664.72;5090388;28;20211;-75
2023/10/12 07:29:51;;;;;;;8.03;2.00;;;;;;;14.34;90.78;100666.91;5090342;28;20205;-75
2023/10/12 07:32:30;;;;;;;4.93;2.40;;;;;;;14.28;91.03;100672.97;5090389;28;20193;-75
2023/10/12 07:35:07;;;;;;;5.27;2.10;;;;;;;14.14;90.59;100668.44;5090265;28;20256;-76
2023/10/12 07:37:41;;;;;;;6.30;2.33;;;;;;;14.22;90.80;100668.34;5090236;28;20196;-76
2023/10/12 07:40:17;;;;;;;9.73;2.50;;;;;;;14.31;91.55;100669.09;5089956;28;20181;-76
2023/10/12 07:42:47;;;;;;;5.17;2.07;;;;;;;14.29;91.16;100671.94;5090191;28;20189;-75
2023/10/12 07:45:17;;;;;;;5.40;2.40;;;;;;;14.20;91.49;100670.38;5089717;28;20232;-76
2023/10/12 07:47:58;;;;;;;12.87;5.20;;;;;;;14.27;91.77;100675.88;5090029;28;20258;-75
2023/10/12 07:50:30;;;;;;;7.77;2.33;;;;;;;14.29;90.55;100679.19;5089647;28;20294;-74
2023/10/12 07:53:14;;;;;;;6.97;2.27;;;;;;;14.21;90.84;100680.16;5089988;28;20192;-73
2023/10/12 07:55:43;;;;;;;9.03;2.27;;;;;;;14.17;91.08;100684.22;5089867;28;20643;-73
2023/10/12 07:58:12;;;;;;;7.43;2.27;;;;;;;14.21;90.79;100693.59;5089556;28;20292;-73
2023/10/12 08:00:51;;;;;;;8.93;2.27;;;;;;;14.17;90.58;100700.38;5087750;28;20185;-73
2023/10/12 08:03:20;;;;;;;9.37;2.30;;;;;;;14.15;89.96;100694.31;5076285;28;20200;-73
2023/10/12 08:06:07;;;;;;;7.30;2.40;;;;;;;14.10;90.02;100694.06;5075870;28;20711;-73
2023/10/12 08:08:37;;;;;;;8.33;2.83;;;;;;;14.06;90.33;100687.34;5075883;28;20640;-74
2023/10/12 08:11:27;;;;;;;6.97;2.77;;;;;;;14.15;91.45;100697.00;5076017;28;20222;-73
2023/10/12 08:14:09;;;;;;;9.00;2.60;;;;;;;14.15;91.32;100708.63;5076149;28;20240;-72
2023/10/12 08:16:40;;;;;;;14.20;2.50;;;;;;;14.14;90.48;100717.72;5075586;28;20699;-72
2023/10/12 08:19:23;;;;;;;9.20;2.60;;;;;;;14.14;91.05;100711.53;5076204;28;20197;-71
2023/10/12 08:21:59;;;;;;;11.67;2.67;;;;;;;14.06;91.25;100714.28;5075909;28;20281;-71
2023/10/12 08:24:35;;;;;;;10.53;2.60;;;;;;;14.08;90.72;100718.44;5075025;28;20273;-71
2023/10/12 08:27:06;;;;;;;9.10;2.50;;;;;;;14.09;91.39;100730.06;5074595;28;20217;-71
2023/10/12 08:32:33;;;;;;;9.23;2.60;;;;;;;14.20;91.36;100732.31;5075721;28;20190;-71
2023/10/12 08:41:19;;;;;;;8.90;2.63;;;;;;;14.11;91.51;100733.41;5070190;28;20209;-74
2023/10/12 08:43:48;;;;;;;10.07;2.60;;;;;;;14.03;90.82;100741.56;5074990;28;20213;-74
2023/10/12 08:46:47;;;;;;;6.30;2.40;;;;;;;14.05;91.30;100739.53;5075647;28;20240;-74
2023/10/12 08:52:06;;;;;;;12.23;2.93;;;;;;;13.97;90.24;100742.31;5075258;28;20323;-75
2023/10/12 08:54:37;;;;;;;4.60;2.23;;;;;;;14.01;91.63;100741.75;5075346;28;20255;-73
2023/10/12 08:57:17;;;;;;;6.03;2.50;;;;;;;14.05;91.88;100752.97;5074865;28;20640;-73
2023/10/12 09:00:19;;;;;;;10.17;2.93;;;;;;;13.98;91.75;100758.25;5075240;28;20201;-73
2023/10/12 09:02:52;;;;;;;10.20;2.80;;;;;;;14.05;91.69;100753.81;5075639;28;20208;-73
2023/10/12 09:05:25;;;;;;;7.90;2.50;;;;;;;14.08;91.68;100755.31;5075478;28;20337;-73
2023/10/12 09:08:06;;;;;;;8.40;2.60;;;;;;;14.09;91.63;100760.53;5075115;28;20194;-73
2023/10/12 09:10:49;;;;;;;8.87;2.47;;;;;;;14.02;90.73;100762.25;5074613;28;20659;-73
2023/10/12 09:13:19;;;;;;;12.23;2.57;;;;;;;14.05;90.85;100767.28;5074003;28;20208;-73
2023/10/12 09:15:54;;;;;;;12.20;2.60;;;;;;;14.04;90.24;100770.97;5075121;28;20232;-74
2023/10/12 09:18:26;;;;;;;14.00;2.80;;;;;;;14.02;90.57;100772.19;5074858;28;20215;-73
2023/10/12 09:21:17;;;;;;;9.23;2.20;;;;;;;14.02;90.55;100777.56;5075634;28;20193;-74
2023/10/12 09:23:50;;;;;;;9.60;2.63;;;;;;;14.00;92.66;100771.53;5074351;28;20194;-74
2023/10/12 09:26:30;;;;;;;8.77;2.33;;;;;;;14.00;90.89;100775.09;5074413;28;20232;-74
2023/10/12 09:29:21;;;;;;;8.47;2.50;;;;;;;14.03;90.90;100784.63;5074437;28;20628;-74
2023/10/12 09:32:15;;;;;;;10.27;2.67;;;;;;;14.07;91.13;100772.50;5074187;28;20762;-74
2023/10/12 09:35:02;;;;;;;8.00;2.50;;;;;;;14.07;90.37;100773.34;5074461;28;20225;-74
2023/10/12 09:37:43;;;;;;;9.83;2.23;;;;;;;14.07;90.72;100765.25;5074474;28;20193;-73
2023/10/12 09:40:26;;;;;;;10.73;2.60;;;;;;;14.05;90.02;100769.13;5074418;28;20193;-74
2023/10/12 09:42:59;;;;;;;9.17;2.70;;;;;;;14.04;89.31;100762.09;5074376;28;20190;-74
2023/10/12 09:45:35;;;;;;;8.30;2.60;;;;;;;14.08;89.76;100772.28;5073926;28;20221;-74
2023/10/12 09:48:06;;;;;;;11.67;2.90;;;;;;;14.13;88.51;100769.91;5074324;28;20200;-74
2023/10/12 09:50:36;;;;;;;8.33;2.37;;;;;;;14.19;88.39;100779.09;5073705;28;20259;-73
2023/10/12 09:53:24;;;;;;;5.63;2.10;;;;;;;14.06;88.48;100774.34;5074189;28;20286;-73
2023/10/12 09:58:51;;;;;;;9.63;2.03;;;;;;;14.24;88.87;100787.47;5063585;28;20201;-74
2023/10/12 10:01:45;;;;;;;9.03;2.13;;;;;;;14.33;88.69;100785.53;5073777;28;20235;-73
2023/10/12 10:04:28;;;;;;;14.63;2.60;;;;;;;14.35;88.75;100789.75;5073942;28;20233;-73
2023/10/12 10:07:18;;;;;;;8.63;2.50;;;;;;;14.43;89.55;100794.22;5073712;28;20605;-73
2023/10/12 10:09:49;;;;;;;8.10;2.50;;;;;;;14.30;87.73;100794.81;5073936;28;20197;-73
2023/10/12 10:12:20;;;;;;;12.10;2.50;;;;;;;14.35;86.81;100791.63;5073783;28;20241;-73
2023/10/12 10:14:53;;;;;;;8.93;2.40;;;;;;;14.40;86.86;100792.72;5073762;28;20225;-73
2023/10/12 10:17:36;;;;;;;9.83;2.70;;;;;;;14.48;87.99;100784.59;5073804;28;20203;-73
2023/10/12 10:20:33;;;;;;;7.80;2.50;;;;;;;14.51;88.48;100788.75;5073693;28;20194;-73
2023/10/12 10:22:59;;;;;;;9.30;2.40;;;;;;;14.41;86.29;100791.72;5072473;28;20236;-73
2023/10/12 10:25:33;;;;;;;8.63;2.50;;;;;;;14.36;85.71;100795.97;5073013;28;20316;-73
2023/10/12 10:28:08;;;;;;;8.73;2.60;;;;;;;14.36;85.90;100794.13;5073667;28;20196;-74
2023/10/12 10:30:42;;;;;;;13.30;3.00;;;;;;;14.43;86.29;100791.53;5073302;28;20609;-73
2023/10/12 10:33:17;;;;;;;12.63;2.50;;;;;;;14.45;84.98;100789.50;5073924;28;20185;-75
2023/10/12 10:36:05;;;;;;;10.77;3.23;;;;;;;14.47;84.34;100790.97;5073207;28;20602;-75
2023/10/12 10:38:33;;;;;;;11.70;3.00;;;;;;;14.49;84.92;100786.22;5073602;28;20280;-73
2023/10/12 10:41:08;;;;;;;11.70;2.47;;;;;;;14.55;86.29;100790.06;5073248;28;20683;-74
2023/10/12 10:43:38;;;;;;;12.00;2.67;;;;;;;14.57;86.35;100788.84;5073475;28;20189;-74
2023/10/12 10:46:09;;;;;;;11.87;2.80;;;;;;;14.63;87.80;100785.41;5073437;28;20224;-74
2023/10/12 10:48:41;;;;;;;17.17;2.87;;;;;;;14.65;85.65;100782.53;5073548;28;20189;-74
2023/10/12 10:51:18;;;;;;;10.80;2.60;;;;;;;14.60;85.13;100777.69;5072990;28;20702;-74
2023/10/12 10:53:52;;;;;;;8.87;2.67;;;;;;;14.67;85.50;100789.41;5073367;28;20200;-74
2023/10/12 10:56:37;;;;;;;7.97;2.57;;;;;;;14.61;84.26;100781.22;5073073;28;20193;-75
2023/10/12 10:59:06;;;;;;;9.60;2.77;;;;;;;14.63;84.53;100782.72;5073053;28;20721;-74
2023/10/12 11:01:34;;;;;;;12.57;2.93;;;;;;;14.66;82.89;100790.41;5073690;28;20278;-74
2023/10/12 11:04:17;;;;;;;13.23;2.93;;;;;;;14.71;84.13;100784.50;5073278;28;20229;-76
2023/10/12 11:06:49;;;;;;;8.73;2.37;;;;;;;14.77;86.09;100782.91;5073242;28;20189;-76
2023/10/12 11:09:18;;;;;;;9.43;2.50;;;;;;;14.79;86.62;100781.72;5073261;28;20193;-76
2023/10/12 11:11:58;;;;;;;11.00;2.87;;;;;;;14.84;85.62;100783.81;5073113;28;20235;-76
2023/10/12 11:14:31;;;;;;;14.70;3.20;;;;;;;14.81;85.67;100782.34;5073100;28;20235;-77
2023/10/12 11:17:04;;;;;;;11.77;3.10;;;;;;;14.82;84.72;100781.34;5072880;28;20628;-77
2023/10/12 11:19:37;;;;;;;10.47;2.93;;;;;;;14.79;83.50;100781.72;5072809;28;20643;-77
2023/10/12 11:22:12;;;;;;;7.90;2.50;;;;;;;14.80;83.10;100777.97;5073141;28;20285;-76
2023/10/12 11:24:46;;;;;;;9.47;2.40;;;;;;;14.85;83.71;100780.97;5073047;28;20629;-75
2023/10/12 11:27:31;;;;;;;7.87;3.10;;;;;;;14.83;84.14;100782.19;5072792;28;20709;-75
2023/10/12 11:30:06;;;;;;;8.17;2.27;;;;;;;14.73;81.85;100777.88;5073152;28;20185;-76
2023/10/12 11:32:53;;;;;;;14.27;3.30;;;;;;;14.78;84.14;100784.56;5072962;28;20237;-76
2023/10/12 11:35:40;;;;;;;12.37;2.77;;;;;;;14.76;83.29;100786.63;5072924;28;20312;-77
2023/10/12 11:38:17;;;;;;;16.93;3.30;;;;;;;14.81;84.64;100787.75;5076636;28;20185;-77
2023/10/12 11:40:50;;;;;;;12.97;2.83;;;;;;;14.85;85.27;100788.19;5076675;28;20193;-76
2023/10/12 11:43:21;;;;;;;9.10;2.80;;;;;;;14.88;85.79;100785.13;5076673;28;20209;-77
2023/10/12 11:46:01;;;;;;;9.13;2.70;;;;;;;14.87;86.46;100783.44;5077619;28;20638;-77
2023/10/12 11:48:31;;;;;;;9.37;2.47;;;;;;;14.89;86.24;100784.13;5076247;28;20189;-77
2023/10/12 11:51:11;;;;;;;10.70;2.63;;;;;;;14.92;86.82;100778.34;5076149;28;20300;-76
2023/10/12 11:53:41;;;;;;;9.57;2.23;;;;;;;14.75;84.08;100777.72;5076325;28;20209;-76
2023/10/12 11:56:13;;;;;;;14.50;3.43;;;;;;;14.69;85.87;100779.28;5076366;28;20217;-77
2023/10/12 11:58:47;;;;;;;9.07;2.87;;;;;;;14.53;85.24;100775.94;5076422;28;20213;-77
2023/10/12 12:01:15;;;;;;;10.20;2.80;;;;;;;14.63;86.29;100782.72;5075991;28;20682;-77
2023/10/12 12:03:45;;;;;;;12.70;3.00;;;;;;;14.66;86.41;100782.34;5076164;28;20307;-77
2023/10/12 12:06:19;;;;;;;10.13;2.70;;;;;;;14.71;88.35;100785.31;5076256;28;20259;-77
2023/10/12 12:08:48;;;;;;;10.50;2.80;;;;;;;14.73;86.61;100784.31;5076221;28;20213;-77
2023/10/12 12:11:19;;;;;;;10.53;2.63;;;;;;;14.79;87.13;100791.66;5075860;28;20815;-77
2023/10/12 12:13:51;;;;;;;9.60;2.53;;;;;;;14.68;85.26;100791.09;5075668;28;20656;-77
2023/10/12 12:16:21;;;;;;;12.90;2.63;;;;;;;14.74;86.35;100786.81;5076118;28;20201;-77
2023/10/12 12:18:51;;;;;;;10.87;2.57;;;;;;;14.79;87.05;100779.00;5075675;28;20671;-76
2023/10/12 12:21:30;;;;;;;8.83;2.90;;;;;;;14.79;87.25;100778.19;5076101;28;20204;-77
2023/10/12 12:24:01;;;;;;;12.57;3.03;;;;;;;14.80;87.18;100780.66;5075865;28;20229;-76
2023/10/12 12:26:33;;;;;;;13.30;2.90;;;;;;;14.77;87.88;100772.94;5076722;28;20267;-77
2023/10/12 12:29:05;;;;;;;10.23;3.30;;;;;;;14.79;89.08;100770.94;5075873;28;20571;-76
2023/10/12 12:31:33;;;;;;;18.43;11.20;;;;;;;14.79;87.87;100778.19;5075821;28;20194;-76
2023/10/12 12:34:06;;;;;;;13.23;5.73;;;;;;;14.77;88.16;100769.41;5075597;28;20332;-76
2023/10/12 12:36:38;;;;;;;17.60;8.77;;;;;;;14.77;87.99;100775.66;5075798;28;20189;-76
2023/10/12 12:39:10;;;;;;;40.37;31.87;;;;;;;14.78;87.80;100773.78;5075307;28;20195;-76
2023/10/12 12:41:39;;;;;;;39.93;35.70;;;;;;;14.78;88.46;100773.78;5075656;28;20186;-76
2023/10/12 12:44:10;;;;;;;34.00;30.60;;;;;;;14.77;89.09;100777.50;5075464;28;20270;-76